This is the latest recevied weather packets stored in our database for station/object N4DRV. If no packets are shown the sender has not sent any weather packets the latest 10 day(s).
| Time | Temp. | Humidity | Pressure | Rain* | Wind** | Luminosity | Snow |
|---|---|---|---|---|---|---|---|
| 1777551318 | 14.44° C | 97% | 1012.1 hPa | 0.25 mm | - | - | - |
| 1777550743 | 14.44° C | 97% | 1012.2 hPa | 0.25 mm | - | - | - |
| 1777546511 | 14.44° C | 97% | 1011.1 hPa | 0 mm | - | - | - |
| 1777543546 | 14.44° C | 96% | 1011.5 hPa | 0 mm | - | - | - |
| 1777541719 | 14.44° C | 95% | 1012 hPa | 0 mm | - | - | - |
| 1777539314 | 14.44° C | 95% | 1011.9 hPa | 0.25 mm | - | - | - |
| 1777530921 | 18.33° C | 91% | 1012 hPa | 0.25 mm | - | - | - |
| 1777527913 | 19.44° C | 87% | 1011.3 hPa | 0 mm | - | - | - |
| 1777520719 | 21.11° C | 87% | 1012.9 hPa | 0 mm | - | - | - |
| 1777515912 | 21.67° C | 87% | 1012.9 hPa | 0 mm | - | - | - |
| 1777504506 | 25° C | 74% | 1011.2 hPa | 0 mm | - | - | - |
| 1777500920 | 26.11° C | 73% | 1011.4 hPa | 0 mm | - | - | - |
| 1777497315 | 26.11° C | 73% | 1011.6 hPa | 0 mm | - | - | - |
| 1777494911 | 26.11° C | 74% | 1011.8 hPa | 0 mm | - | - | - |
| 1777491922 | 26.11° C | 74% | 1012.7 hPa | 0 mm | - | - | - |
| 1777489542 | 25.56° C | 77% | 1013.1 hPa | 0 mm | - | - | - |
| 1777486516 | 25° C | 75% | 1013.7 hPa | 0 mm | - | - | - |
| 1777485311 | 24.44° C | 75% | 1014 hPa | 0 mm | - | - | - |
| 1777481104 | 23.89° C | 77% | 1014.6 hPa | 0 mm | - | - | - |
| 1777479322 | 23.33° C | 81% | 1015 hPa | 0 mm | - | - | - |
| 1777478763 | 22.78° C | 81% | 1015.1 hPa | 0 mm | - | - | - |
| 1777474510 | 20.56° C | 88% | 1015.5 hPa | 0 mm | - | - | - |
| 1777473912 | 20.56° C | 91% | 1015.6 hPa | 0 mm | - | - | - |
| 1777473311 | 20° C | 93% | 1015.6 hPa | 0 mm | - | - | - |
| 1777463710 | 16.67° C | 99% | 1016.3 hPa | 0 mm | - | - | - |
* Rain latest hour (hover to see other rain measurements)
** Current wind speed in m/s (hover to see current wind gust speed)